Time;durP1;ratioP1;P1;durP2;ratioP2;P2;SDS_P1;SDS_P2;PMS_P1;PMS_P2;Temp;Humidity;BMP_temperature;BMP_pressure;BME280_temperature;BME280_humidity;BME280_pressure;Samples;Min_cycle;Max_cycle;Signal;HPM_P1;HPM_P2
2021/07/26 00:00:58;;;;;;;24.30;21.87;;;19.10;99.90;;;;;;5028669;28;20441;-58
2021/07/26 00:03:24;;;;;;;26.13;23.30;;;19.10;99.90;;;;;;5016250;28;20500;-54
2021/07/26 00:05:57;;;;;;;24.87;22.47;;;19.00;99.90;;;;;;5023832;28;20192;-54
2021/07/26 00:08:23;;;;;;;25.20;22.80;;;19.00;99.90;;;;;;5027859;28;20213;-55
2021/07/26 00:11:04;;;;;;;24.20;22.00;;;19.10;99.90;;;;;;5028297;28;20440;-54
2021/07/26 00:13:30;;;;;;;26.50;24.10;;;19.00;99.90;;;;;;5025823;28;20801;-57
2021/07/26 00:15:56;;;;;;;25.63;23.13;;;19.10;99.90;;;;;;5027869;28;20453;-55
2021/07/26 00:18:22;;;;;;;24.90;22.30;;;19.10;99.90;;;;;;5025600;28;20261;-53
2021/07/26 00:20:48;;;;;;;24.87;22.40;;;19.10;99.90;;;;;;5027955;28;20864;-55
2021/07/26 00:23:14;;;;;;;23.40;21.10;;;19.10;99.90;;;;;;5028203;28;20920;-53
2021/07/26 00:25:40;;;;;;;25.73;23.30;;;19.10;99.90;;;;;;5027333;28;20935;-56
2021/07/26 00:28:08;;;;;;;24.37;22.10;;;19.10;99.90;;;;;;5028938;28;20829;-57
2021/07/26 00:30:34;;;;;;;25.60;23.10;;;19.10;99.90;;;;;;5024250;28;20439;-57
2021/07/26 00:32:59;;;;;;;25.70;23.30;;;19.10;99.90;;;;;;5032561;28;20433;-54
2021/07/26 00:35:25;;;;;;;25.40;22.70;;;19.00;99.90;;;;;;5034347;28;20441;-55
2021/07/26 00:37:51;;;;;;;27.00;24.20;;;19.00;99.90;;;;;;5034915;28;20191;-57
2021/07/26 00:40:17;;;;;;;27.10;24.40;;;19.00;99.90;;;;;;5033109;28;20199;-57
2021/07/26 00:42:42;;;;;;;25.53;22.93;;;19.00;99.90;;;;;;5034605;28;20185;-55
2021/07/26 00:45:08;;;;;;;25.97;23.20;;;19.00;99.90;;;;;;5033844;28;20468;-57
2021/07/26 00:47:34;;;;;;;26.27;23.67;;;19.00;99.90;;;;;;5024366;28;20197;-56
2021/07/26 00:50:00;;;;;;;26.27;23.87;;;19.00;99.90;;;;;;5037578;28;20516;-55
2021/07/26 00:52:26;;;;;;;26.13;23.77;;;19.00;99.90;;;;;;5033596;28;20197;-56
2021/07/26 00:54:53;;;;;;;26.37;23.73;;;19.00;99.90;;;;;;5023005;28;20872;-57
2021/07/26 00:57:20;;;;;;;28.20;25.30;;;19.10;99.90;;;;;;5034313;28;20200;-57
2021/07/26 00:59:46;;;;;;;27.40;24.63;;;19.10;99.90;;;;;;5033288;28;20668;-56
2021/07/26 01:02:11;;;;;;;28.70;25.70;;;19.20;99.90;;;;;;5032793;28;20771;-58
2021/07/26 01:04:37;;;;;;;27.40;24.70;;;19.00;99.90;;;;;;5033348;28;20198;-54
2021/07/26 01:07:03;;;;;;;27.50;24.67;;;19.00;99.90;;;;;;5034904;28;20189;-55
2021/07/26 01:09:29;;;;;;;28.47;25.57;;;18.90;99.90;;;;;;5029743;28;20233;-56
2021/07/26 01:11:54;;;;;;;28.57;25.57;;;18.90;99.90;;;;;;5023291;28;20433;-57
2021/07/26 01:14:20;;;;;;;28.63;25.77;;;18.90;99.90;;;;;;5032972;28;20564;-55
2021/07/26 01:16:47;;;;;;;27.77;24.90;;;18.80;99.90;;;;;;5035583;28;20240;-54
2021/07/26 01:19:13;;;;;;;28.60;25.53;;;18.80;99.90;;;;;;5033133;28;20890;-56
2021/07/26 01:21:39;;;;;;;29.17;25.83;;;18.80;99.90;;;;;;5034096;28;20437;-57
2021/07/26 01:24:05;;;;;;;27.97;25.07;;;18.80;99.90;;;;;;5031479;28;20483;-57
2021/07/26 01:26:31;;;;;;;28.67;25.37;;;18.70;99.90;;;;;;5034365;28;20189;-54
2021/07/26 01:29:00;;;;;;;29.30;26.23;;;18.70;99.90;;;;;;5034977;28;20446;-55
2021/07/26 01:31:27;;;;;;;30.17;26.77;;;18.70;99.90;;;;;;5029667;28;20451;-58
2021/07/26 01:33:53;;;;;;;49.23;29.77;;;18.70;99.90;;;;;;5033269;28;20875;-55
2021/07/26 01:36:20;;;;;;;54.85;30.95;;;18.70;99.90;;;;;;5034021;28;20473;-56
2021/07/26 01:38:50;;;;;;;42.00;29.00;;;18.70;99.90;;;;;;5031604;28;20194;-54
2021/07/26 01:41:21;;;;;;;34.10;29.07;;;18.60;99.90;;;;;;5023757;28;20440;-54
2021/07/26 01:44:13;;;;;;;30.23;27.00;;;18.60;99.90;;;;;;5028906;28;20487;-55
2021/07/26 01:46:54;;;;;;;29.57;26.17;;;18.60;99.90;;;;;;5021496;28;20491;-58
2021/07/26 01:49:44;;;;;;;28.93;25.90;;;18.70;99.90;;;;;;5033775;28;20493;-54
2021/07/26 01:52:11;;;;;;;30.33;26.40;;;18.60;99.90;;;;;;5028690;28;21003;-55
2021/07/26 01:54:36;;;;;;;27.97;24.97;;;18.50;99.90;;;;;;5030987;28;20439;-54
2021/07/26 01:57:02;;;;;;;28.63;25.53;;;18.50;99.90;;;;;;5029048;28;20433;-55
2021/07/26 01:59:28;;;;;;;25.90;22.93;;;18.50;99.90;;;;;;5030711;28;20261;-54
2021/07/26 02:01:54;;;;;;;27.47;24.57;;;18.50;99.90;;;;;;5030927;28;20559;-54
2021/07/26 02:04:20;;;;;;;26.20;23.67;;;18.50;99.90;;;;;;5029978;28;20469;-58
2021/07/26 02:06:45;;;;;;;25.63;23.17;;;18.40;99.90;;;;;;5029555;28;20278;-56
2021/07/26 02:09:11;;;;;;;24.90;22.50;;;18.40;99.90;;;;;;5028690;28;20244;-57
2021/07/26 02:11:36;;;;;;;25.60;22.33;;;18.50;99.90;;;;;;5030382;28;20186;-56
2021/07/26 02:14:09;;;;;;;24.40;21.90;;;18.40;99.90;;;;;;5030572;28;20212;-56
2021/07/26 02:16:35;;;;;;;25.57;22.73;;;18.40;99.90;;;;;;5027548;28;20237;-54
2021/07/26 02:19:00;;;;;;;27.40;23.27;;;18.30;99.90;;;;;;5026145;28;20453;-56
2021/07/26 02:21:26;;;;;;;24.13;21.80;;;18.30;99.90;;;;;;5030921;28;20427;-58
2021/07/26 02:23:51;;;;;;;24.87;22.47;;;18.30;99.90;;;;;;5030510;28;20285;-54
2021/07/26 02:26:17;;;;;;;25.83;23.33;;;18.20;99.90;;;;;;5024165;28;20251;-56
2021/07/26 02:28:42;;;;;;;26.30;23.50;;;18.30;99.90;;;;;;5028576;28;20182;-55
2021/07/26 02:31:08;;;;;;;25.77;23.20;;;18.30;99.90;;;;;;5029163;28;20187;-56
2021/07/26 02:33:33;;;;;;;24.67;22.27;;;18.30;99.90;;;;;;5030747;28;20181;-55
2021/07/26 02:35:59;;;;;;;24.03;21.53;;;18.30;99.90;;;;;;5031005;28;20192;-55
2021/07/26 02:38:25;;;;;;;23.50;21.20;;;18.20;99.90;;;;;;5028785;28;20249;-56
2021/07/26 02:40:50;;;;;;;24.77;22.37;;;18.10;99.90;;;;;;5028607;28;20205;-56
2021/07/26 02:43:16;;;;;;;26.30;23.60;;;18.10;99.90;;;;;;5028644;28;20199;-56
2021/07/26 02:45:41;;;;;;;24.50;22.20;;;18.10;99.90;;;;;;5028734;28;20190;-56
2021/07/26 02:48:08;;;;;;;24.43;22.13;;;18.10;99.90;;;;;;5032190;28;20253;-57
2021/07/26 02:50:33;;;;;;;25.70;23.30;;;18.00;99.90;;;;;;5029342;28;20675;-54
2021/07/26 02:53:00;;;;;;;25.47;22.87;;;18.00;99.90;;;;;;5028304;28;20508;-57
2021/07/26 02:55:27;;;;;;;24.73;22.13;;;18.00;99.90;;;;;;5030272;28;20198;-59
2021/07/26 02:57:53;;;;;;;25.20;22.70;;;18.00;99.90;;;;;;5028076;28;20508;-56
2021/07/26 03:00:19;;;;;;;25.20;22.70;;;18.00;99.90;;;;;;5029686;28;20551;-56
2021/07/26 03:02:45;;;;;;;27.03;23.37;;;17.90;99.90;;;;;;5023390;28;20529;-58
2021/07/26 03:05:10;;;;;;;27.70;24.67;;;17.90;99.90;;;;;;5021397;28;21022;-58
2021/07/26 03:07:36;;;;;;;26.80;23.03;;;18.00;99.90;;;;;;5027934;28;20194;-58
2021/07/26 03:10:02;;;;;;;26.13;23.53;;;18.10;99.90;;;;;;5028918;28;20194;-58
2021/07/26 03:12:28;;;;;;;27.37;24.40;;;18.00;99.90;;;;;;5029075;28;20171;-58
2021/07/26 03:14:53;;;;;;;26.37;23.40;;;18.00;99.90;;;;;;5028893;28;20455;-59
2021/07/26 03:17:19;;;;;;;26.90;24.10;;;18.00;99.90;;;;;;5027664;28;20768;-58
2021/07/26 03:19:44;;;;;;;28.10;25.17;;;18.00;99.90;;;;;;5028318;28;20653;-58
2021/07/26 03:22:38;;;;;;;24.60;22.20;;;18.00;99.90;;;;;;5027929;28;20190;-58
2021/07/26 03:25:03;;;;;;;26.92;24.17;;;17.90;99.90;;;;;;5025819;28;20206;-59
2021/07/26 03:27:29;;;;;;;24.53;22.23;;;17.80;99.90;;;;;;5028235;28;20189;-58
2021/07/26 03:29:55;;;;;;;26.70;24.10;;;17.80;99.90;;;;;;5027904;28;20199;-58
2021/07/26 03:32:20;;;;;;;26.37;22.67;;;17.80;99.90;;;;;;5028304;28;20220;-58
2021/07/26 03:34:46;;;;;;;27.50;24.70;;;17.80;99.90;;;;;;5017879;28;20191;-58
2021/07/26 03:37:11;;;;;;;27.00;24.40;;;17.80;99.90;;;;;;5029586;28;20183;-58
2021/07/26 03:39:37;;;;;;;27.57;24.87;;;17.80;99.90;;;;;;5027822;28;20210;-58
2021/07/26 03:42:02;;;;;;;27.17;24.47;;;17.70;99.90;;;;;;5029580;28;20649;-58
2021/07/26 03:44:28;;;;;;;27.93;25.03;;;17.60;99.90;;;;;;5028411;28;20648;-58
2021/07/26 03:46:53;;;;;;;27.57;24.63;;;17.60;99.90;;;;;;5026666;28;20217;-56
2021/07/26 03:49:19;;;;;;;27.13;24.33;;;17.70;99.90;;;;;;5026565;28;20581;-58
2021/07/26 03:51:44;;;;;;;28.97;26.07;;;17.60;99.90;;;;;;5028437;28;20245;-58
2021/07/26 03:54:10;;;;;;;28.90;25.90;;;17.60;99.90;;;;;;5028685;28;20201;-58
2021/07/26 03:56:36;;;;;;;29.23;25.37;;;17.60;99.90;;;;;;5027269;28;20198;-55
2021/07/26 03:59:02;;;;;;;27.43;24.67;;;17.60;99.90;;;;;;5028459;28;20182;-58
2021/07/26 04:01:27;;;;;;;27.98;25.05;;;17.60;99.90;;;;;;5022176;28;20180;-57
2021/07/26 04:03:53;;;;;;;26.77;24.17;;;17.60;99.90;;;;;;5026248;28;20538;-58
2021/07/26 04:06:20;;;;;;;25.03;22.63;;;17.70;99.90;;;;;;5025914;28;20209;-55
2021/07/26 04:08:48;;;;;;;26.97;24.33;;;17.70;99.90;;;;;;5026206;28;20179;-58
2021/07/26 04:11:20;;;;;;;26.17;23.57;;;17.70;99.90;;;;;;5017093;28;20480;-57
2021/07/26 04:13:50;;;;;;;26.92;24.33;;;17.60;99.90;;;;;;5028814;28;20447;-57
2021/07/26 04:16:16;;;;;;;26.73;23.87;;;17.60;99.90;;;;;;5016119;28;20229;-58
2021/07/26 04:18:42;;;;;;;26.93;24.37;;;17.60;99.90;;;;;;5022567;28;20951;-58
2021/07/26 04:21:08;;;;;;;26.15;23.45;;;17.60;99.90;;;;;;5028823;28;20201;-57
2021/07/26 04:23:34;;;;;;;27.43;24.40;;;17.60;99.90;;;;;;5027123;28;20183;-58
2021/07/26 04:26:00;;;;;;;27.23;24.43;;;17.70;99.90;;;;;;5028354;28;20578;-58
2021/07/26 04:28:25;;;;;;;26.40;23.80;;;17.70;99.90;;;;;;5026466;28;20967;-59
2021/07/26 04:30:51;;;;;;;26.60;24.03;;;17.70;99.90;;;;;;5025882;28;20178;-58
2021/07/26 04:33:16;;;;;;;26.93;24.23;;;17.70;99.90;;;;;;5017422;28;20186;-58
2021/07/26 04:35:42;;;;;;;25.73;23.20;;;17.70;99.90;;;;;;5019043;28;20715;-59
2021/07/26 04:38:07;;;;;;;26.10;23.17;;;17.70;99.90;;;;;;5028263;28;20225;-58
2021/07/26 04:40:33;;;;;;;26.70;24.13;;;17.80;99.90;;;;;;5027400;28;20598;-59
2021/07/26 04:42:59;;;;;;;26.53;23.40;;;17.80;99.90;;;;;;5027282;28;20183;-59
2021/07/26 04:45:25;;;;;;;27.73;24.90;;;17.90;99.90;;;;;;5027049;28;20241;-58
2021/07/26 04:47:51;;;;;;;26.63;23.93;;;17.90;99.90;;;;;;5025672;28;20514;-58
2021/07/26 04:50:17;;;;;;;26.20;23.60;;;18.00;99.90;;;;;;5029568;28;20473;-59
2021/07/26 04:52:42;;;;;;;29.10;26.23;;;18.00;99.90;;;;;;5024394;28;20178;-58
2021/07/26 04:55:08;;;;;;;27.20;24.40;;;17.90;99.90;;;;;;5027240;28;20187;-58
2021/07/26 04:57:33;;;;;;;26.33;23.63;;;18.10;99.90;;;;;;5021007;28;20191;-58
2021/07/26 04:59:59;;;;;;;26.97;24.47;;;18.10;99.90;;;;;;5026358;28;20178;-58
2021/07/26 05:02:25;;;;;;;27.80;25.10;;;18.20;99.90;;;;;;5025152;28;20190;-56
2021/07/26 05:04:51;;;;;;;26.30;23.90;;;18.20;99.90;;;;;;5028760;28;20284;-58
2021/07/26 05:07:16;;;;;;;25.97;23.37;;;18.20;99.90;;;;;;5027229;28;20187;-58
2021/07/26 05:09:42;;;;;;;26.90;24.30;;;18.30;99.90;;;;;;5025938;28;20214;-59
2021/07/26 05:12:12;;;;;;;25.33;22.93;;;18.20;99.90;;;;;;5027669;28;20190;-60
2021/07/26 05:14:42;;;;;;;27.70;25.00;;;18.30;99.90;;;;;;5027371;28;20210;-59
2021/07/26 05:17:08;;;;;;;24.93;22.67;;;18.20;99.90;;;;;;5016915;28;20461;-58
2021/07/26 05:19:33;;;;;;;26.37;23.97;;;18.30;99.90;;;;;;5028933;28;20757;-59
2021/07/26 05:21:59;;;;;;;25.70;23.37;;;18.40;99.90;;;;;;5031120;28;20298;-59
2021/07/26 05:24:24;;;;;;;25.57;23.10;;;18.50;99.90;;;;;;5027070;28;20206;-60
2021/07/26 05:26:58;;;;;;;27.27;24.67;;;18.60;99.90;;;;;;5030012;28;20217;-58
2021/07/26 05:29:23;;;;;;;24.63;22.53;;;18.70;99.90;;;;;;5029545;28;20170;-60
2021/07/26 05:31:49;;;;;;;25.30;23.00;;;18.70;99.90;;;;;;5031327;28;20455;-59
2021/07/26 05:34:14;;;;;;;23.93;21.83;;;18.90;99.90;;;;;;5031139;28;20515;-59
2021/07/26 05:36:40;;;;;;;23.77;21.67;;;19.10;99.90;;;;;;5029506;28;20547;-59
2021/07/26 05:39:06;;;;;;;23.87;21.50;;;19.20;99.90;;;;;;5029944;28;20178;-60
2021/07/26 05:41:31;;;;;;;24.43;22.03;;;19.20;99.90;;;;;;5031597;28;20546;-55
2021/07/26 05:43:57;;;;;;;24.57;22.47;;;19.30;99.90;;;;;;5029627;28;20210;-52
2021/07/26 05:46:22;;;;;;;24.20;22.00;;;19.30;99.90;;;;;;5030767;28;20178;-49
2021/07/26 05:48:48;;;;;;;23.67;21.57;;;19.40;99.90;;;;;;5030446;28;20191;-52
2021/07/26 05:51:14;;;;;;;22.50;20.53;;;19.60;99.90;;;;;;5025639;28;21045;-54
2021/07/26 05:53:39;;;;;;;22.30;20.40;;;19.80;99.90;;;;;;5030703;28;20268;-52
2021/07/26 05:56:06;;;;;;;21.87;19.90;;;19.90;99.90;;;;;;5028736;28;20563;-54
2021/07/26 05:58:40;;;;;;;21.93;20.03;;;19.90;99.90;;;;;;5021835;28;21985;-52
2021/07/26 06:01:11;;;;;;;22.00;20.00;;;20.10;99.90;;;;;;5031504;28;20428;-50
2021/07/26 06:03:37;;;;;;;19.70;17.90;;;20.30;99.90;;;;;;5012147;28;21109;-53
2021/07/26 06:06:03;;;;;;;21.07;19.07;;;20.40;99.90;;;;;;5022670;28;20412;-54
2021/07/26 06:08:29;;;;;;;20.50;18.70;;;20.60;99.90;;;;;;5028946;28;20174;-54
2021/07/26 06:10:55;;;;;;;20.17;18.40;;;20.70;99.90;;;;;;5029923;28;20440;-53
2021/07/26 06:13:20;;;;;;;21.33;19.57;;;20.80;99.90;;;;;;5029395;28;20192;-52
2021/07/26 06:15:46;;;;;;;20.63;18.83;;;20.70;99.90;;;;;;5030127;28;20208;-54
2021/07/26 06:18:11;;;;;;;20.13;18.27;;;20.80;99.90;;;;;;5029075;28;20253;-54
2021/07/26 06:20:37;;;;;;;19.13;17.40;;;21.00;99.90;;;;;;5026492;28;23001;-55
2021/07/26 06:23:02;;;;;;;19.97;18.07;;;21.00;99.90;;;;;;5030717;28;20269;-49
2021/07/26 06:25:28;;;;;;;19.00;17.30;;;21.30;99.90;;;;;;5026904;28;20195;-53
2021/07/26 06:27:54;;;;;;;17.83;16.00;;;21.30;99.90;;;;;;5029272;28;20190;-50
2021/07/26 06:30:19;;;;;;;17.80;16.33;;;21.30;97.90;;;;;;5028670;28;20181;-54
2021/07/26 06:32:45;;;;;;;18.40;16.80;;;21.20;91.40;;;;;;5029870;28;20178;-49
2021/07/26 06:35:11;;;;;;;17.60;16.10;;;21.30;96.40;;;;;;5026615;28;20202;-54
2021/07/26 06:37:37;;;;;;;17.70;15.93;;;21.20;91.50;;;;;;5031208;28;20221;-52
2021/07/26 06:40:06;;;;;;;18.80;17.00;;;21.20;99.00;;;;;;5027455;28;21009;-53
2021/07/26 06:42:31;;;;;;;18.50;16.70;;;21.20;97.30;;;;;;5029863;28;20261;-53
2021/07/26 06:44:57;;;;;;;19.50;17.67;;;21.30;99.90;;;;;;5020983;28;20487;-52
2021/07/26 06:47:22;;;;;;;19.10;17.20;;;21.40;99.90;;;;;;5024403;28;20265;-50
2021/07/26 06:49:48;;;;;;;18.23;16.73;;;21.50;98.60;;;;;;5026886;28;20179;-53
2021/07/26 06:52:13;;;;;;;17.63;16.13;;;21.70;99.20;;;;;;5022725;28;20188;-54
2021/07/26 06:54:39;;;;;;;18.20;16.70;;;21.90;92.60;;;;;;5025030;28;20182;-54
2021/07/26 06:57:05;;;;;;;17.93;16.10;;;22.20;90.20;;;;;;5029052;28;20201;-53
2021/07/26 06:59:30;;;;;;;17.60;16.00;;;22.40;70.40;;;;;;5028046;28;20491;-53
2021/07/26 07:01:56;;;;;;;17.13;15.60;;;22.70;59.10;;;;;;5021291;28;20187;-53
2021/07/26 07:04:21;;;;;;;17.37;15.53;;;22.90;47.70;;;;;;5010848;28;20558;-53
2021/07/26 07:06:47;;;;;;;17.70;16.07;;;23.00;40.10;;;;;;5025243;28;20186;-52
2021/07/26 07:09:13;;;;;;;16.70;15.30;;;23.20;33.10;;;;;;5027978;28;20182;-55
2021/07/26 07:11:39;;;;;;;17.43;15.97;;;23.30;22.70;;;;;;5026359;28;20170;-52
2021/07/26 07:14:04;;;;;;;15.70;14.40;;;23.20;30.70;;;;;;5028608;28;20464;-52
2021/07/26 07:16:30;;;;;;;16.70;15.23;;;23.20;29.60;;;;;;5028618;28;20553;-52
2021/07/26 07:18:56;;;;;;;15.87;14.60;;;23.30;22.30;;;;;;5025140;28;20197;-52
2021/07/26 07:21:23;;;;;;;16.20;14.90;;;23.30;17.20;;;;;;5028923;28;20526;-52
2021/07/26 07:23:49;;;;;;;15.70;14.43;;;23.40;6.30;;;;;;5028405;28;20834;-52
2021/07/26 07:26:16;;;;;;;16.83;15.43;;;23.40;1.70;;;;;;5024629;28;20437;-52
2021/07/26 07:28:44;;;;;;;15.23;13.93;;;23.50;1.00;;;;;;5024106;28;21463;-48
2021/07/26 07:31:09;;;;;;;14.90;13.57;;;23.50;1.00;;;;;;5020306;28;20434;-50
2021/07/26 07:33:35;;;;;;;15.63;14.43;;;23.50;1.00;;;;;;5028277;28;20240;-52
2021/07/26 07:36:05;;;;;;;15.27;13.93;;;23.60;1.00;;;;;;5028485;28;20209;-52
2021/07/26 07:38:31;;;;;;;15.30;13.90;;;23.60;1.00;;;;;;5026818;28;20940;-51
2021/07/26 07:40:58;;;;;;;15.03;13.63;;;23.80;7.20;;;;;;5019500;28;20433;-52
2021/07/26 07:43:25;;;;;;;15.33;14.03;;;23.80;3.90;;;;;;5024880;28;20444;-54
2021/07/26 07:45:50;;;;;;;14.87;13.67;;;24.00;1.00;;;;;;5027595;28;21029;-53
2021/07/26 07:48:18;;;;;;;14.80;13.60;;;24.00;1.00;;;;;;5033038;28;20409;-55
2021/07/26 07:50:44;;;;;;;14.70;13.50;;;24.10;1.00;;;;;;5018593;28;20659;-51
2021/07/26 07:53:10;;;;;;;14.33;13.07;;;24.10;1.00;;;;;;5028382;28;20412;-54
2021/07/26 07:55:36;;;;;;;14.63;13.43;;;24.20;1.00;;;;;;5028626;28;21220;-54
2021/07/26 07:58:02;;;;;;;14.60;13.30;;;24.30;1.00;;;;;;5027686;28;20277;-52
2021/07/26 08:00:28;;;;;;;13.73;12.63;;;24.50;1.00;;;;;;5018967;28;20461;-52
2021/07/26 08:02:54;;;;;;;13.10;12.10;;;24.60;1.00;;;;;;5021471;28;20248;-55
2021/07/26 08:05:20;;;;;;;14.53;13.30;;;24.70;1.00;;;;;;5026723;28;20465;-53
2021/07/26 08:07:46;;;;;;;13.90;12.60;;;24.80;1.00;;;;;;5019886;28;20660;-49
2021/07/26 08:10:15;;;;;;;13.67;12.57;;;24.90;1.00;;;;;;5028881;28;20201;-50
2021/07/26 08:12:42;;;;;;;13.23;12.10;;;25.00;1.00;;;;;;5028570;28;20545;-54
2021/07/26 08:15:08;;;;;;;13.40;12.30;;;25.20;1.00;;;;;;5028432;28;20187;-53
2021/07/26 08:17:37;;;;;;;13.60;12.40;;;25.30;1.00;;;;;;5028003;28;20468;-51
2021/07/26 08:20:04;;;;;;;14.17;13.03;;;25.50;1.00;;;;;;5027790;28;20486;-54
2021/07/26 08:22:29;;;;;;;13.80;12.70;;;25.60;1.00;;;;;;5027838;28;20417;-52
2021/07/26 08:24:55;;;;;;;12.93;11.90;;;25.70;1.00;;;;;;5027518;28;20527;-51
2021/07/26 08:27:20;;;;;;;14.07;12.90;;;25.60;1.00;;;;;;5028532;28;20214;-50
2021/07/26 08:29:46;;;;;;;13.37;12.07;;;25.80;1.00;;;;;;5024431;28;20189;-54
2021/07/26 08:32:11;;;;;;;13.80;12.67;;;25.90;1.00;;;;;;5020898;28;20229;-52
2021/07/26 08:34:37;;;;;;;13.30;12.17;;;26.00;1.00;;;;;;5028484;28;20217;-54
2021/07/26 08:37:03;;;;;;;13.03;11.93;;;26.20;1.00;;;;;;5027770;28;20189;-52
2021/07/26 08:39:30;;;;;;;12.20;11.30;;;26.10;1.00;;;;;;5020896;28;20217;-53
2021/07/26 08:41:55;;;;;;;12.60;11.60;;;26.20;1.00;;;;;;5028719;28;20193;-51
2021/07/26 08:44:21;;;;;;;12.83;11.83;;;26.30;1.00;;;;;;5027352;28;20461;-54
2021/07/26 08:46:51;;;;;;;12.80;11.70;;;26.50;1.00;;;;;;5027831;28;20272;-51
2021/07/26 08:49:19;;;;;;;13.77;12.57;;;26.70;99.90;;;;;;5026757;28;20937;-53
2021/07/26 08:51:45;;;;;;;12.83;11.80;;;27.00;99.90;;;;;;5023872;28;20430;-55
2021/07/26 08:54:14;;;;;;;12.90;11.80;;;27.10;1.00;;;;;;5014289;28;20429;-54
2021/07/26 08:56:40;;;;;;;12.60;11.47;;;27.20;1.00;;;;;;5031142;28;20436;-52
2021/07/26 08:59:05;;;;;;;12.93;11.80;;;27.30;99.90;;;;;;5032285;28;20883;-55
2021/07/26 09:01:32;;;;;;;14.95;13.55;;;27.60;1.00;;;;;;5031138;28;20444;-53
2021/07/26 09:03:58;;;;;;;12.77;11.80;;;27.90;1.00;;;;;;5032276;28;20228;-53
2021/07/26 09:06:24;;;;;;;13.30;12.40;;;28.10;99.90;;;;;;5032177;28;20429;-52
2021/07/26 09:08:52;;;;;;;12.30;11.17;;;28.30;99.90;;;;;;5031277;28;20175;-53
2021/07/26 09:11:18;;;;;;;13.03;12.03;;;28.60;1.00;;;;;;5032259;28;20405;-53
2021/07/26 09:13:47;;;;;;;14.37;13.00;;;28.90;1.00;;;;;;5032056;28;20401;-53
2021/07/26 09:16:22;;;;;;;13.10;12.20;;;29.20;1.00;;;;;;5030064;28;20220;-53
2021/07/26 09:19:10;;;;;;;12.20;11.40;;;29.60;99.90;;;;;;5031780;28;20401;-53
2021/07/26 09:21:53;;;;;;;12.70;11.90;;;30.00;99.90;;;;;;5031157;28;20413;-55
2021/07/26 09:24:29;;;;;;;13.03;12.03;;;30.60;1.00;;;;;;5030570;28;20449;-50
2021/07/26 09:27:08;;;;;;;13.40;12.40;;;31.20;99.90;;;;;;5029632;28;20464;-52
2021/07/26 09:29:34;;;;;;;13.80;12.80;;;31.20;97.90;;;;;;5030967;28;20425;-53
2021/07/26 09:32:03;;;;;;;13.00;12.00;;;31.80;1.00;;;;;;5031291;28;20420;-56
2021/07/26 09:34:29;;;;;;;12.57;11.60;;;32.40;1.00;;;;;;5030808;28;20178;-54
2021/07/26 09:36:55;;;;;;;13.40;12.50;;;32.80;1.00;;;;;;5031348;28;20409;-55
2021/07/26 09:39:30;;;;;;;12.47;11.57;;;33.60;1.00;;;;;;5030851;28;20435;-54
2021/07/26 09:41:58;;;;;;;13.33;12.33;;;34.20;99.90;;;;;;5031714;28;20404;-52
2021/07/26 09:44:29;;;;;;;12.97;11.97;;;34.80;99.90;;;;;;5029705;28;20493;-55
2021/07/26 09:47:18;;;;;;;13.00;12.20;;;34.60;99.90;;;;;;5039116;28;20442;-54
2021/07/26 09:49:44;;;;;;;12.53;11.73;;;35.20;99.90;;;;;;5030738;28;20433;-56
2021/07/26 09:52:10;;;;;;;12.97;11.97;;;35.90;99.90;;;;;;5031346;28;20453;-55
2021/07/26 09:54:48;;;;;;;12.63;11.83;;;36.30;99.90;;;;;;5031542;28;20413;-52
2021/07/26 09:57:23;;;;;;;12.80;12.00;;;37.00;99.90;;;;;;5015940;28;20195;-55
2021/07/26 09:59:49;;;;;;;11.30;10.50;;;37.70;99.90;;;;;;5011408;28;20411;-55
2021/07/26 10:02:16;;;;;;;12.17;11.33;;;38.10;99.90;;;;;;5006317;28;20446;-53
2021/07/26 10:04:46;;;;;;;11.63;10.93;;;38.10;99.90;;;;;;5012951;28;20498;-51
2021/07/26 10:07:13;;;;;;;12.27;11.37;;;38.30;99.90;;;;;;5011282;28;20402;-54
2021/07/26 10:09:43;;;;;;;12.30;11.50;;;38.30;99.90;;;;;;5021628;28;20905;-55
2021/07/26 10:12:17;;;;;;;12.00;11.00;;;38.40;99.90;;;;;;5031071;28;20418;-55
2021/07/26 10:14:45;;;;;;;11.33;10.70;;;38.40;99.90;;;;;;5031176;28;20960;-55
2021/07/26 10:17:10;;;;;;;11.23;10.63;;;39.30;99.90;;;;;;5026992;28;20881;-52
2021/07/26 10:19:36;;;;;;;13.03;12.27;;;39.80;99.90;;;;;;5030525;28;20398;-51
2021/07/26 10:22:08;;;;;;;11.30;10.70;;;40.20;99.90;;;;;;5025238;28;20207;-54
2021/07/26 10:24:42;;;;;;;12.13;11.40;;;40.60;99.90;;;;;;5010478;28;20237;-55
2021/07/26 10:27:14;;;;;;;11.87;11.17;;;41.10;99.90;;;;;;5010408;28;20391;-55
2021/07/26 10:29:54;;;;;;;10.77;10.17;;;40.80;99.90;;;;;;5028468;28;20759;-56
2021/07/26 10:32:28;;;;;;;11.60;11.00;;;41.10;99.90;;;;;;5014086;28;20434;-54
2021/07/26 10:34:55;;;;;;;11.10;10.40;;;41.00;99.90;;;;;;5010934;28;20409;-52
2021/07/26 10:37:38;;;;;;;11.60;11.00;;;40.90;99.90;;;;;;5013417;28;21345;-54
2021/07/26 10:40:23;;;;;;;11.33;10.67;;;40.60;99.90;;;;;;5029365;28;20466;-52
2021/07/26 10:42:53;;;;;;;11.47;10.77;;;40.30;99.90;;;;;;5024154;28;20456;-55
2021/07/26 10:45:31;;;;;;;12.67;11.80;;;40.20;99.90;;;;;;5024380;28;20469;-53
2021/07/26 10:48:22;;;;;;;11.53;10.83;;;39.50;99.90;;;;;;5029159;28;20429;-53
2021/07/26 10:50:52;;;;;;;11.70;11.00;;;38.00;99.90;;;;;;5013731;28;20425;-50
2021/07/26 10:53:37;;;;;;;12.10;11.43;;;36.60;99.90;;;;;;5023613;28;20516;-52
2021/07/26 10:56:07;;;;;;;12.20;11.27;;;36.00;99.90;;;;;;5028182;28;20429;-53
2021/07/26 10:58:57;;;;;;;11.17;10.47;;;35.90;99.90;;;;;;5028264;28;20444;-55
2021/07/26 11:01:22;;;;;;;11.57;10.87;;;37.10;99.90;;;;;;5027464;28;20405;-55
2021/07/26 11:03:50;;;;;;;10.33;9.73;;;38.50;99.90;;;;;;5027672;28;20740;-51
2021/07/26 11:06:33;;;;;;;10.63;9.97;;;39.20;99.90;;;;;;5027975;28;20179;-51
2021/07/26 11:09:34;;;;;;;10.53;9.87;;;39.90;99.90;;;;;;5028303;28;20412;-55
2021/07/26 11:12:02;;;;;;;11.43;10.73;;;40.50;99.90;;;;;;5028035;28;20413;-54
2021/07/26 11:14:28;;;;;;;10.00;9.40;;;40.00;99.90;;;;;;5027777;28;20426;-55
2021/07/26 11:16:55;;;;;;;10.77;10.07;;;40.00;99.90;;;;;;5027716;28;21280;-53
2021/07/26 11:19:33;;;;;;;11.40;10.67;;;40.10;99.90;;;;;;5028547;28;20673;-55
2021/07/26 11:22:00;;;;;;;10.97;10.37;;;40.00;99.90;;;;;;5022551;28;20452;-50
2021/07/26 11:24:48;;;;;;;11.40;10.80;;;39.60;99.90;;;;;;5015326;28;21019;-51
2021/07/26 11:27:14;;;;;;;11.43;10.80;;;38.80;99.90;;;;;;5015142;28;20800;-52
2021/07/26 11:29:51;;;;;;;11.70;10.90;;;37.80;99.90;;;;;;5018456;28;20462;-52
2021/07/26 11:32:22;;;;;;;11.17;10.47;;;37.10;99.90;;;;;;5008161;28;20425;-49
2021/07/26 11:34:56;;;;;;;10.93;10.23;;;36.70;99.90;;;;;;5016982;28;20509;-52
2021/07/26 11:37:36;;;;;;;10.10;9.40;;;36.70;99.90;;;;;;5018528;28;20924;-52
2021/07/26 11:40:08;;;;;;;10.37;9.87;;;37.00;99.90;;;;;;5021104;28;20476;-53
2021/07/26 11:42:36;;;;;;;10.73;10.13;;;37.30;99.90;;;;;;5024251;28;20521;-54
2021/07/26 11:45:04;;;;;;;9.97;9.37;;;37.80;99.90;;;;;;5020020;28;20462;-52
2021/07/26 11:47:38;;;;;;;10.97;10.23;;;38.80;99.90;;;;;;5029678;28;20418;-53
2021/07/26 11:50:06;;;;;;;10.20;9.60;;;38.90;99.90;;;;;;5010499;28;20437;-55
2021/07/26 11:52:32;;;;;;;10.70;10.00;;;38.40;99.90;;;;;;5010708;28;20403;-54
2021/07/26 11:54:58;;;;;;;10.30;9.70;;;37.90;99.90;;;;;;5012442;28;20421;-50
2021/07/26 11:57:23;;;;;;;10.93;10.20;;;37.00;99.90;;;;;;5010328;28;20551;-54
2021/07/26 11:59:53;;;;;;;10.10;9.50;;;36.90;99.90;;;;;;5018444;28;20185;-48
2021/07/26 12:02:33;;;;;;;9.83;9.33;;;37.50;99.90;;;;;;5015869;28;20249;-50
2021/07/26 12:05:18;;;;;;;10.97;10.27;;;37.70;99.90;;;;;;5016477;28;20875;-51
2021/07/26 12:07:45;;;;;;;10.90;10.30;;;37.20;99.90;;;;;;5022021;28;20409;-53
2021/07/26 12:10:15;;;;;;;10.83;10.13;;;36.90;99.90;;;;;;5021333;28;21035;-51
2021/07/26 12:12:46;;;;;;;10.90;10.30;;;36.70;99.90;;;;;;5020350;28;20418;-52
2021/07/26 12:15:25;;;;;;;10.68;10.07;;;36.30;99.90;;;;;;5026216;28;20425;-53
2021/07/26 12:18:09;;;;;;;11.47;10.77;;;35.50;99.90;;;;;;5016621;28;20226;-53
2021/07/26 12:20:39;;;;;;;11.67;10.97;;;34.90;99.90;;;;;;5016602;28;20429;-48
2021/07/26 12:23:11;;;;;;;11.60;10.60;;;34.50;99.90;;;;;;5023114;28;21295;-54
2021/07/26 12:25:45;;;;;;;11.45;10.77;;;34.10;99.90;;;;;;5023423;28;20448;-53
2021/07/26 12:28:10;;;;;;;10.97;10.30;;;33.80;99.90;;;;;;5026880;28;20179;-53
2021/07/26 12:30:38;;;;;;;10.57;9.87;;;33.70;99.90;;;;;;5024876;28;20888;-48
2021/07/26 12:33:04;;;;;;;10.63;10.00;;;34.30;99.90;;;;;;5025414;28;20200;-55